Terminal Aerodrome Forecast
Issued by NWS

Home | Current Version | Previous Version | Text Only | Print | Product List | Glossary On
Versions: 1 2 3 4 5 6 7 8 9 10 11 12 13 14 15 16 17
928
FTUS43 KBIS 211957 AAB
TAFJMS
TAF AMD
KJMS 211957Z 2120/2218 02008KT 1 1/2SM BR OVC002
     FM220000 03004KT 1/2SM FZFG OVC002=

USA.gov is the U.S. government's official web portal to all federal, state and local government web resources and services.